createdAt,value
2024-04-18T00:01:03.978Z,4.74
2024-04-18T00:03:31.834Z,4.74
2024-04-18T00:05:58.859Z,4.74
2024-04-18T00:08:25.660Z,4.76
2024-04-18T00:10:55.318Z,4.77
2024-04-18T00:13:22.051Z,4.74
2024-04-18T00:15:48.890Z,4.73
2024-04-18T00:18:15.764Z,4.71
2024-04-18T00:20:42.558Z,4.68
2024-04-18T00:23:09.355Z,4.67
2024-04-18T00:25:36.124Z,4.67
2024-04-18T00:28:02.952Z,4.64
2024-04-18T00:30:29.763Z,4.64
2024-04-18T00:32:56.602Z,4.61
2024-04-18T00:35:23.341Z,4.66
2024-04-18T00:37:50.197Z,4.67
2024-04-18T00:40:16.994Z,4.60
2024-04-18T00:42:43.769Z,4.63
2024-04-18T00:45:10.701Z,4.64
2024-04-18T00:47:38.170Z,4.65
2024-04-18T00:50:08.695Z,4.67
2024-04-18T00:52:35.665Z,4.63
2024-04-18T00:55:04.558Z,4.63
2024-04-18T00:57:33.559Z,4.62
2024-04-18T01:00:00.799Z,4.54
2024-04-18T01:02:28.866Z,4.57
2024-04-18T01:04:55.966Z,4.59
2024-04-18T01:07:22.939Z,4.60
2024-04-18T01:09:51.309Z,4.57
2024-04-18T01:12:18.142Z,4.57
2024-04-18T01:14:45.001Z,4.61
2024-04-18T01:17:12.284Z,4.52
2024-04-18T01:19:39.781Z,4.45
2024-04-18T01:22:06.571Z,4.46
2024-04-18T01:24:33.738Z,4.45
2024-04-18T01:27:00.844Z,4.49
2024-04-18T01:29:28.311Z,4.55
2024-04-18T01:31:55.210Z,4.55
2024-04-18T01:34:22.099Z,4.53
2024-04-18T01:36:49.811Z,4.51
2024-04-18T01:39:16.963Z,4.53
2024-04-18T01:41:43.823Z,4.56
2024-04-18T01:44:11.867Z,4.55
2024-04-18T01:46:38.732Z,4.52
2024-04-18T01:49:05.691Z,4.47
2024-04-18T01:51:32.536Z,4.47
2024-04-18T01:53:59.263Z,4.46
2024-04-18T01:56:26.009Z,4.44
2024-04-18T01:58:52.784Z,4.43
2024-04-18T02:01:24.679Z,4.44
2024-04-18T02:03:52.095Z,4.41
2024-04-18T02:06:19.061Z,4.44
2024-04-18T02:08:45.985Z,4.42
2024-04-18T02:11:12.972Z,4.42
2024-04-18T02:13:39.933Z,4.34
2024-04-18T02:16:06.738Z,4.36
2024-04-18T02:18:33.730Z,4.30
2024-04-18T02:21:00.719Z,4.32
2024-04-18T02:23:27.756Z,4.33
2024-04-18T02:25:54.575Z,4.32
2024-04-18T02:28:21.653Z,4.29
2024-04-18T02:30:48.575Z,4.26
2024-04-18T02:33:17.504Z,4.26
2024-04-18T02:35:44.781Z,4.26
2024-04-18T02:38:11.803Z,4.29
2024-04-18T02:40:38.746Z,4.32
2024-04-18T02:43:05.545Z,4.36
2024-04-18T02:45:32.477Z,4.37
2024-04-18T02:47:59.435Z,4.39
2024-04-18T02:50:26.223Z,4.41
2024-04-18T02:52:53.074Z,4.42
2024-04-18T02:55:19.849Z,4.43
2024-04-18T02:57:46.818Z,4.44
2024-04-18T03:00:13.960Z,4.45
2024-04-18T03:02:40.786Z,4.41
2024-04-18T03:05:07.579Z,4.43
2024-04-18T03:07:34.399Z,4.45
2024-04-18T03:10:01.165Z,4.43
2024-04-18T03:12:28.449Z,4.47
2024-04-18T03:14:55.518Z,4.45
2024-04-18T03:17:22.339Z,4.43
2024-04-18T03:19:49.112Z,4.44
2024-04-18T03:22:17.511Z,4.43
2024-04-18T03:24:44.414Z,4.44
2024-04-18T03:27:11.249Z,4.45
2024-04-18T03:29:38.034Z,4.44
2024-04-18T03:32:05.430Z,4.45
2024-04-18T03:34:32.397Z,4.45
2024-04-18T03:36:59.221Z,4.37
2024-04-18T03:39:29.489Z,4.39
2024-04-18T03:41:56.271Z,4.42
2024-04-18T03:44:23.161Z,4.47
2024-04-18T03:46:49.927Z,4.51
2024-04-18T03:49:16.767Z,4.44
2024-04-18T03:51:43.563Z,4.46
2024-04-18T03:54:10.461Z,4.49
2024-04-18T03:56:37.197Z,4.53
2024-04-18T03:59:04.136Z,4.49
2024-04-18T04:01:31.253Z,4.54
2024-04-18T04:03:58.569Z,4.51
2024-04-18T04:06:25.610Z,4.50
2024-04-18T04:08:52.556Z,4.50
2024-04-18T04:11:19.860Z,4.48
2024-04-18T04:13:47.012Z,4.51
2024-04-18T04:16:13.953Z,4.53
2024-04-18T04:18:41.017Z,4.53
2024-04-18T04:21:09.043Z,4.57
2024-04-18T04:23:37.631Z,4.52
2024-04-18T04:26:04.587Z,4.49
2024-04-18T04:28:31.328Z,4.45
2024-04-18T04:30:58.153Z,4.43
2024-04-18T04:33:28.755Z,4.45
2024-04-18T04:35:56.126Z,4.42
2024-04-18T04:38:22.962Z,4.45
2024-04-18T04:40:49.719Z,4.46
2024-04-18T04:43:16.604Z,4.49
2024-04-18T04:45:43.355Z,4.53
2024-04-18T04:48:10.207Z,4.54
2024-04-18T04:50:42.058Z,4.57
2024-04-18T04:53:09.025Z,4.52
2024-04-18T04:55:35.811Z,4.49
2024-04-18T04:58:03.165Z,4.51
2024-04-18T05:00:30.073Z,4.52
2024-04-18T05:02:57.032Z,4.58
2024-04-18T05:05:23.907Z,4.59
2024-04-18T05:07:54.828Z,4.61
2024-04-18T05:10:22.321Z,4.60
2024-04-18T05:12:50.567Z,4.60
2024-04-18T05:15:17.785Z,4.65
2024-04-18T05:17:44.686Z,4.68
2024-04-18T05:20:12.243Z,4.74
2024-04-18T05:22:39.032Z,4.78
2024-04-18T05:25:06.157Z,4.82
2024-04-18T05:27:33.960Z,4.82
2024-04-18T05:30:19.377Z,4.83
2024-04-18T05:32:46.428Z,4.84
2024-04-18T05:35:13.923Z,4.84
2024-04-18T05:37:40.755Z,4.87
2024-04-18T05:40:08.289Z,4.95
2024-04-18T05:42:35.063Z,5.01
2024-04-18T05:45:01.974Z,5.02
2024-04-18T05:47:29.397Z,5.03
2024-04-18T05:49:57.822Z,5.11
2024-04-18T05:52:24.582Z,5.15
2024-04-18T05:54:51.602Z,5.19
2024-04-18T05:57:18.453Z,5.22
2024-04-18T05:59:45.258Z,5.19
2024-04-18T06:02:13.734Z,5.15
2024-04-18T06:04:40.728Z,5.18
2024-04-18T06:07:07.579Z,5.16
2024-04-18T06:09:34.326Z,5.04
2024-04-18T06:12:01.081Z,5.00
2024-04-18T06:14:27.817Z,5.00
2024-04-18T06:16:54.683Z,5.03
2024-04-18T06:19:21.429Z,5.11
2024-04-18T06:21:48.172Z,5.15
2024-04-18T06:24:16.347Z,5.22
2024-04-18T06:26:43.091Z,5.19
2024-04-18T06:29:11.565Z,5.29
2024-04-18T06:31:38.316Z,5.27
2024-04-18T06:34:05.807Z,5.24
2024-04-18T06:36:33.009Z,5.24
2024-04-18T06:39:00.406Z,5.22
2024-04-18T06:41:27.221Z,5.36
2024-04-18T06:43:53.938Z,5.33
2024-04-18T06:46:21.240Z,5.39
2024-04-18T06:48:48.170Z,5.39
2024-04-18T06:51:15.088Z,5.49
2024-04-18T06:53:41.913Z,5.72
2024-04-18T06:56:08.721Z,5.84
2024-04-18T06:58:35.506Z,5.82
2024-04-18T07:01:02.477Z,5.76
2024-04-18T07:03:29.486Z,5.71
2024-04-18T07:05:56.368Z,5.79
2024-04-18T07:08:25.597Z,5.74
2024-04-18T07:10:53.230Z,5.78
2024-04-18T07:13:20.901Z,5.82
2024-04-18T07:15:47.727Z,5.88
2024-04-18T07:18:14.608Z,5.91
2024-04-18T07:20:41.461Z,5.92
2024-04-18T07:23:08.300Z,5.95
2024-04-18T07:25:38.564Z,6.01
2024-04-18T07:28:05.399Z,5.96
2024-04-18T07:30:32.851Z,6.16
2024-04-18T07:32:59.858Z,6.30
2024-04-18T07:35:26.865Z,6.30
2024-04-18T07:37:53.665Z,6.27
2024-04-18T07:40:22.591Z,6.22
2024-04-18T07:42:52.887Z,6.22
2024-04-18T07:45:20.175Z,6.26
2024-04-18T07:47:47.296Z,6.22
2024-04-18T07:50:14.494Z,6.26
2024-04-18T07:52:44.983Z,6.55
2024-04-18T07:55:17.199Z,6.71
2024-04-18T07:57:44.586Z,6.82
2024-04-18T08:00:12.791Z,6.85
2024-04-18T08:02:42.122Z,6.86
2024-04-18T08:05:11.680Z,7.04
2024-04-18T08:07:42.252Z,7.12
2024-04-18T08:10:13.809Z,7.26
2024-04-18T08:12:45.740Z,7.11
2024-04-18T08:15:18.119Z,7.04
2024-04-18T08:17:47.803Z,7.07
2024-04-18T08:20:14.738Z,7.20
2024-04-18T08:22:41.647Z,7.18
2024-04-18T08:25:08.832Z,7.12
2024-04-18T08:27:36.752Z,7.05
2024-04-18T08:30:04.512Z,7.08
2024-04-18T08:32:31.399Z,7.09
2024-04-18T08:34:58.226Z,7.09
2024-04-18T08:37:24.984Z,7.13
2024-04-18T08:39:51.789Z,7.16
2024-04-18T08:42:27.477Z,7.31
2024-04-18T08:44:57.307Z,7.38
2024-04-18T08:47:28.432Z,7.24
2024-04-18T08:49:55.750Z,7.41
2024-04-18T08:52:23.076Z,7.35
2024-04-18T08:54:50.004Z,7.40
2024-04-18T08:57:22.616Z,7.21
2024-04-18T08:59:55.219Z,7.16
2024-04-18T09:02:22.067Z,7.14
2024-04-18T09:04:48.993Z,7.05
2024-04-18T09:07:15.805Z,6.94
2024-04-18T09:09:42.572Z,6.79
2024-04-18T09:12:09.467Z,6.62
2024-04-18T09:14:36.324Z,6.58
2024-04-18T09:17:03.056Z,6.68
2024-04-18T09:19:29.843Z,6.69
2024-04-18T09:22:00.439Z,6.75
2024-04-18T09:24:27.546Z,6.78
2024-04-18T09:26:54.293Z,6.89
2024-04-18T09:29:22.653Z,6.96
2024-04-18T09:31:49.827Z,7.02
2024-04-18T09:34:19.729Z,7.03
2024-04-18T09:36:47.051Z,7.19
2024-04-18T09:39:27.627Z,7.31
2024-04-18T09:42:02.316Z,7.32
2024-04-18T09:44:32.187Z,7.50
2024-04-18T09:47:00.182Z,7.52
2024-04-18T09:49:28.392Z,7.72
2024-04-18T09:51:57.091Z,7.78
2024-04-18T09:54:24.294Z,7.78
2024-04-18T09:56:53.196Z,7.74
2024-04-18T09:59:22.163Z,7.77
2024-04-18T10:01:50.242Z,7.76
2024-04-18T10:04:17.195Z,7.80
2024-04-18T10:06:47.554Z,7.84
2024-04-18T10:09:17.005Z,7.78
2024-04-18T10:11:44.341Z,7.77
2024-04-18T10:14:11.223Z,7.83
2024-04-18T10:16:56.217Z,7.75
2024-04-18T10:19:30.674Z,7.77
2024-04-18T10:24:36.614Z,7.76
2024-04-18T10:27:09.034Z,7.75
2024-04-18T10:29:36.098Z,7.82
2024-04-18T10:32:05.980Z,7.83
2024-04-18T10:34:34.222Z,7.89
2024-04-18T10:37:09.554Z,8.03
2024-04-18T10:39:41.951Z,8.12
2024-04-18T10:42:10.058Z,8.13
2024-04-18T10:44:38.070Z,8.09
2024-04-18T10:47:08.664Z,7.96
2024-04-18T10:49:35.742Z,7.92
2024-04-18T10:52:02.702Z,8.01
2024-04-18T10:54:29.480Z,8.09
2024-04-18T10:56:56.656Z,8.09
2024-04-18T10:59:23.534Z,7.93
2024-04-18T11:01:50.424Z,7.92
2024-04-18T11:04:17.220Z,7.94
2024-04-18T11:06:45.310Z,8.01
2024-04-18T11:09:12.219Z,8.06
2024-04-18T11:11:39.843Z,8.17
2024-04-18T11:14:08.061Z,8.14
2024-04-18T11:16:36.243Z,8.24
2024-04-18T11:19:03.421Z,8.46
2024-04-18T11:21:30.727Z,8.57
2024-04-18T11:23:58.214Z,8.53
2024-04-18T11:26:29.522Z,8.40
2024-04-18T11:28:57.976Z,8.42
2024-04-18T11:31:24.920Z,9.08
2024-04-18T11:33:52.443Z,9.54
2024-04-18T11:36:20.212Z,9.78
2024-04-18T11:38:48.245Z,10.26
2024-04-18T11:41:15.176Z,10.61
2024-04-18T11:43:42.503Z,10.57
2024-04-18T11:46:09.367Z,10.98
2024-04-18T11:48:36.804Z,11.40
2024-04-18T11:51:04.076Z,11.44
2024-04-18T11:53:31.725Z,11.74
2024-04-18T11:55:59.999Z,11.39
2024-04-18T11:58:27.526Z,12.01
2024-04-18T12:00:54.299Z,12.52
2024-04-18T12:03:21.509Z,12.93
2024-04-18T12:05:48.364Z,12.84
2024-04-18T12:08:15.106Z,11.87
2024-04-18T12:10:41.861Z,11.83
2024-04-18T12:13:08.684Z,11.37
2024-04-18T12:15:35.651Z,11.07
2024-04-18T12:18:03.882Z,10.94
2024-04-18T12:20:30.770Z,11.79
2024-04-18T12:22:57.512Z,12.33
2024-04-18T12:25:24.374Z,12.54
2024-04-18T12:27:51.243Z,12.79
2024-04-18T12:30:18.103Z,13.02
2024-04-18T12:32:45.049Z,13.64
2024-04-18T12:35:12.045Z,13.43
2024-04-18T12:37:38.786Z,13.09
2024-04-18T12:40:06.668Z,11.74
2024-04-18T12:42:35.242Z,11.43
2024-04-18T12:45:02.286Z,11.64
2024-04-18T12:47:29.691Z,11.59
2024-04-18T12:49:56.759Z,11.65
2024-04-18T12:52:23.731Z,11.74
2024-04-18T12:54:50.595Z,11.78
2024-04-18T12:57:17.442Z,11.89
2024-04-18T12:59:44.556Z,12.19
2024-04-18T13:02:13.205Z,12.74
2024-04-18T13:04:40.143Z,12.78
2024-04-18T13:07:07.323Z,12.81
2024-04-18T13:09:34.550Z,12.60
2024-04-18T13:12:05.670Z,12.37
2024-04-18T13:14:32.596Z,13.33
2024-04-18T13:16:59.436Z,13.86
2024-04-18T13:19:26.221Z,14.23
2024-04-18T13:21:53.656Z,13.65
2024-04-18T13:24:24.009Z,14.13
2024-04-18T13:26:51.479Z,14.08
2024-04-18T13:29:19.063Z,14.52
2024-04-18T13:31:49.052Z,14.62
2024-04-18T13:34:15.822Z,13.83
2024-04-18T13:36:42.716Z,13.58
2024-04-18T13:39:10.100Z,13.69
2024-04-18T13:41:42.212Z,13.20
2024-04-18T13:44:08.957Z,12.94
2024-04-18T13:46:36.077Z,13.11
2024-04-18T13:49:03.030Z,13.57
2024-04-18T13:51:30.037Z,13.25
2024-04-18T13:53:57.527Z,13.19
2024-04-18T13:56:24.742Z,13.46
2024-04-18T13:58:51.570Z,14.19
2024-04-18T14:01:18.328Z,14.57
2024-04-18T14:03:45.183Z,14.38
2024-04-18T14:06:12.034Z,15.03
2024-04-18T14:08:42.650Z,14.67
2024-04-18T14:11:09.545Z,14.30
2024-04-18T14:13:36.473Z,13.98
2024-04-18T14:16:22.215Z,13.33
2024-04-18T14:18:52.202Z,13.04
2024-04-18T14:21:19.818Z,12.64
2024-04-18T14:23:46.660Z,13.57
2024-04-18T14:26:13.429Z,13.81
2024-04-18T14:28:40.203Z,13.91
2024-04-18T14:31:06.953Z,13.99
2024-04-18T14:33:33.880Z,14.19
2024-04-18T14:36:00.730Z,14.10
2024-04-18T14:38:27.703Z,14.23
2024-04-18T14:41:02.083Z,14.39
2024-04-18T14:43:36.541Z,14.75
2024-04-18T14:46:03.428Z,14.83
2024-04-18T14:48:30.218Z,14.87
2024-04-18T14:50:57.005Z,14.53
2024-04-18T14:53:26.795Z,14.28
2024-04-18T14:55:54.439Z,14.64
2024-04-18T14:58:21.179Z,14.32
2024-04-18T15:00:52.484Z,14.28
2024-04-18T15:03:20.267Z,14.05
2024-04-18T15:05:55.928Z,14.36
2024-04-18T15:08:23.327Z,14.50
2024-04-18T15:10:50.263Z,13.93
2024-04-18T15:13:17.148Z,13.69
2024-04-18T15:15:44.784Z,12.91
2024-04-18T15:18:15.064Z,12.32
2024-04-18T15:20:42.130Z,12.19
2024-04-18T15:23:09.961Z,11.64
2024-04-18T15:25:36.964Z,11.41
2024-04-18T15:28:03.925Z,11.49
2024-04-18T15:30:30.838Z,11.62
2024-04-18T15:32:57.746Z,11.75
2024-04-18T15:35:24.566Z,11.89
2024-04-18T15:37:51.357Z,11.86
2024-04-18T15:40:19.021Z,11.88
2024-04-18T15:42:45.860Z,12.02
2024-04-18T15:45:12.739Z,12.02
2024-04-18T15:47:39.697Z,11.68
2024-04-18T15:50:06.745Z,11.67
2024-04-18T15:52:34.902Z,11.67
2024-04-18T15:55:12.304Z,11.84
2024-04-18T15:57:43.286Z,11.93
2024-04-18T16:00:11.233Z,11.70
2024-04-18T16:02:38.309Z,11.88
2024-04-18T16:05:05.688Z,12.00
2024-04-18T16:07:32.603Z,11.93
2024-04-18T16:09:59.733Z,11.70
2024-04-18T16:12:26.927Z,11.77
2024-04-18T16:14:53.856Z,11.78
2024-04-18T16:17:20.689Z,11.83
2024-04-18T16:19:49.670Z,11.70
2024-04-18T16:22:16.848Z,11.83
2024-04-18T16:24:43.702Z,11.65
2024-04-18T16:27:10.584Z,11.24
2024-04-18T16:29:37.327Z,11.01
2024-04-18T16:32:04.360Z,10.97
2024-04-18T16:34:31.105Z,10.86
2024-04-18T16:37:09.234Z,10.99
2024-04-18T16:39:40.070Z,11.08
2024-04-18T16:42:07.619Z,11.03
2024-04-18T16:44:34.552Z,11.06
2024-04-18T16:47:01.379Z,11.08
2024-04-18T16:49:28.653Z,10.92
2024-04-18T16:51:55.573Z,10.96
2024-04-18T16:54:22.464Z,10.88
2024-04-18T16:56:49.318Z,10.86
2024-04-18T16:59:16.358Z,10.89
2024-04-18T17:01:43.153Z,10.80
2024-04-18T17:04:10.004Z,10.55
2024-04-18T17:06:45.473Z,10.34
2024-04-18T17:09:15.833Z,10.37
2024-04-18T17:11:42.785Z,10.33
2024-04-18T17:14:09.842Z,10.38
2024-04-18T17:16:36.720Z,10.39
2024-04-18T17:19:04.188Z,10.20
2024-04-18T17:21:31.305Z,10.14
2024-04-18T17:23:58.296Z,10.14
2024-04-18T17:26:27.445Z,10.02
2024-04-18T17:28:55.775Z,9.75
2024-04-18T17:31:22.694Z,9.54
2024-04-18T17:33:49.487Z,9.54
2024-04-18T17:36:16.374Z,9.53
2024-04-18T17:38:44.340Z,9.49
2024-04-18T17:41:11.163Z,9.37
2024-04-18T17:43:37.994Z,9.36
2024-04-18T17:46:05.366Z,9.27
2024-04-18T17:48:32.457Z,9.21
2024-04-18T17:50:59.343Z,9.15
2024-04-18T17:53:26.236Z,9.09
2024-04-18T17:55:54.880Z,9.03
2024-04-18T17:58:22.296Z,8.93
2024-04-18T18:00:49.673Z,8.88
2024-04-18T18:03:16.712Z,8.81
2024-04-18T18:05:43.811Z,8.73
2024-04-18T18:08:10.663Z,8.69
2024-04-18T18:10:37.755Z,8.62
2024-04-18T18:13:04.856Z,8.54
2024-04-18T18:15:31.999Z,8.47
2024-04-18T18:17:59.459Z,8.47
2024-04-18T18:20:26.348Z,8.46
2024-04-18T18:22:53.199Z,8.38
2024-04-18T18:25:20.009Z,8.30
2024-04-18T18:27:46.879Z,8.26
2024-04-18T18:30:14.829Z,8.21
2024-04-18T18:32:41.979Z,8.17
2024-04-18T18:35:09.730Z,8.08
2024-04-18T18:37:36.778Z,8.01
2024-04-18T18:40:03.920Z,7.95
2024-04-18T18:42:30.853Z,7.90
2024-04-18T18:44:57.707Z,7.83
2024-04-18T18:47:24.576Z,7.79
2024-04-18T18:49:51.426Z,7.74
2024-04-18T18:52:19.707Z,7.68
2024-04-18T18:54:46.627Z,7.61
2024-04-18T18:57:13.557Z,7.56
2024-04-18T18:59:43.919Z,7.51
2024-04-18T19:02:10.903Z,7.45
2024-04-18T19:04:37.812Z,7.42
2024-04-18T19:07:04.868Z,7.37
2024-04-18T19:09:32.906Z,7.33
2024-04-18T19:11:59.863Z,7.29
2024-04-18T19:14:28.131Z,7.25
2024-04-18T19:16:55.249Z,7.23
2024-04-18T19:19:24.304Z,7.17
2024-04-18T19:21:51.251Z,7.15
2024-04-18T19:24:18.228Z,7.07
2024-04-18T19:26:44.980Z,7.01
2024-04-18T19:29:14.231Z,6.93
2024-04-18T19:31:40.992Z,6.80
2024-04-18T19:34:07.825Z,6.72
2024-04-18T19:36:34.710Z,6.68
2024-04-18T19:39:01.494Z,6.67
2024-04-18T19:41:28.307Z,6.62
2024-04-18T19:43:55.583Z,6.53
2024-04-18T19:46:28.155Z,6.44
2024-04-18T19:48:56.144Z,6.38
2024-04-18T19:51:23.293Z,6.35
2024-04-18T19:53:50.047Z,6.30
2024-04-18T19:56:16.911Z,6.23
2024-04-18T19:58:43.795Z,6.17
2024-04-18T20:01:10.532Z,6.13
2024-04-18T20:03:37.451Z,6.08
2024-04-18T20:06:04.861Z,6.03
2024-04-18T20:08:31.758Z,5.97
2024-04-18T20:10:58.513Z,5.91
2024-04-18T20:13:25.301Z,5.86
2024-04-18T20:15:52.034Z,5.81
2024-04-18T20:18:18.957Z,5.82
2024-04-18T20:20:48.094Z,5.77
2024-04-18T20:23:15.344Z,5.68
2024-04-18T20:25:42.465Z,5.62
2024-04-18T20:28:09.248Z,5.57
2024-04-18T20:30:36.083Z,5.53
2024-04-18T20:33:02.882Z,5.48
2024-04-18T20:35:32.550Z,5.46
2024-04-18T20:37:59.414Z,5.46
2024-04-18T20:40:26.177Z,5.40
2024-04-18T20:42:53.009Z,5.36
2024-04-18T20:45:19.799Z,5.29
2024-04-18T20:47:46.733Z,5.25
2024-04-18T20:50:13.663Z,5.26
2024-04-18T20:52:40.440Z,5.20
2024-04-18T20:55:07.503Z,5.20
2024-04-18T20:57:34.322Z,5.14
2024-04-18T21:00:01.092Z,5.11
2024-04-18T21:02:28.426Z,5.11
2024-04-18T21:04:55.372Z,5.10
2024-04-18T21:07:23.447Z,5.10
2024-04-18T21:09:50.277Z,5.10
2024-04-18T21:12:17.507Z,5.08
2024-04-18T21:14:44.478Z,5.09
2024-04-18T21:17:11.275Z,5.04
2024-04-18T21:19:38.260Z,5.02
2024-04-18T21:22:06.853Z,5.01
2024-04-18T21:24:33.741Z,4.99
2024-04-18T21:27:00.622Z,4.97
2024-04-18T21:29:27.508Z,4.93
2024-04-18T21:31:54.231Z,4.91
2024-04-18T21:34:21.002Z,4.85
2024-04-18T21:36:47.820Z,4.83
2024-04-18T21:39:14.805Z,4.81
2024-04-18T21:41:43.027Z,4.79
2024-04-18T21:44:10.589Z,4.78
2024-04-18T21:46:37.413Z,4.74
2024-04-18T21:49:04.329Z,4.74
2024-04-18T21:51:31.364Z,4.72
2024-04-18T21:53:58.177Z,4.74
2024-04-18T21:56:25.029Z,4.72
2024-04-18T21:58:53.572Z,4.68
2024-04-18T22:01:20.462Z,4.64
2024-04-18T22:03:47.368Z,4.59
2024-04-18T22:06:14.292Z,4.56
2024-04-18T22:08:41.063Z,4.54
2024-04-18T22:11:07.876Z,4.47
2024-04-18T22:13:34.627Z,4.40
2024-04-18T22:16:01.398Z,4.39
2024-04-18T22:18:28.370Z,4.36
2024-04-18T22:20:57.744Z,4.34
2024-04-18T22:23:24.627Z,4.32
2024-04-18T22:25:51.593Z,4.29
2024-04-18T22:28:18.384Z,4.28
2024-04-18T22:30:45.381Z,4.25
2024-04-18T22:33:12.251Z,4.24
2024-04-18T22:35:40.351Z,4.22
2024-04-18T22:38:07.207Z,4.20
2024-04-18T22:40:34.107Z,4.18
2024-04-18T22:43:02.554Z,4.11
2024-04-18T22:45:29.402Z,4.07
2024-04-18T22:47:56.915Z,4.07
2024-04-18T22:50:23.844Z,4.06
2024-04-18T22:52:50.706Z,4.06
2024-04-18T22:55:17.594Z,4.06
2024-04-18T22:57:44.527Z,4.05
2024-04-18T23:00:11.995Z,4.05
2024-04-18T23:02:38.800Z,4.03
2024-04-18T23:05:05.888Z,4.02
2024-04-18T23:07:32.772Z,4.04
2024-04-18T23:10:00.621Z,4.01
2024-04-18T23:12:27.534Z,4.01
2024-04-18T23:14:54.334Z,3.99
2024-04-18T23:17:21.198Z,3.98
2024-04-18T23:19:48.056Z,3.98
2024-04-18T23:22:14.844Z,3.98
2024-04-18T23:24:41.763Z,4.01
2024-04-18T23:27:09.049Z,4.03
2024-04-18T23:29:35.957Z,4.05
2024-04-18T23:32:02.751Z,4.04
2024-04-18T23:34:29.522Z,4.05
2024-04-18T23:36:56.281Z,4.04
2024-04-18T23:39:23.127Z,4.07
2024-04-18T23:41:50.193Z,4.09
2024-04-18T23:44:17.053Z,4.13
2024-04-18T23:46:43.962Z,4.16
2024-04-18T23:49:10.860Z,4.17
2024-04-18T23:51:37.834Z,4.20
2024-04-18T23:54:04.604Z,4.22
2024-04-18T23:56:31.449Z,4.22
2024-04-18T23:58:59.345Z,4.21
